sensor_id;sensor_type;location;lat;lon;timestamp;temperature;humidity
18805;DHT22;9530;48.930;9.526;2022-07-24T00:01:28;19.00;99.90
18805;DHT22;9530;48.930;9.526;2022-07-24T00:03:54;19.00;99.90
18805;DHT22;9530;48.930;9.526;2022-07-24T00:06:21;19.00;99.90
18805;DHT22;9530;48.930;9.526;2022-07-24T00:08:48;19.00;99.90
18805;DHT22;9530;48.930;9.526;2022-07-24T00:11:15;19.00;99.90
18805;DHT22;9530;48.930;9.526;2022-07-24T00:13:43;19.00;99.90
18805;DHT22;9530;48.930;9.526;2022-07-24T00:16:10;18.90;99.90
18805;DHT22;9530;48.930;9.526;2022-07-24T00:18:36;18.80;99.90
18805;DHT22;9530;48.930;9.526;2022-07-24T00:21:03;18.80;99.90
18805;DHT22;9530;48.930;9.526;2022-07-24T00:23:30;18.70;99.90
18805;DHT22;9530;48.930;9.526;2022-07-24T00:25:57;18.70;99.90
18805;DHT22;9530;48.930;9.526;2022-07-24T00:28:24;18.70;99.90
18805;DHT22;9530;48.930;9.526;2022-07-24T00:30:52;18.70;99.90
18805;DHT22;9530;48.930;9.526;2022-07-24T00:33:19;18.60;99.90
18805;DHT22;9530;48.930;9.526;2022-07-24T00:35:46;18.60;99.90
18805;DHT22;9530;48.930;9.526;2022-07-24T00:38:12;18.70;99.90
18805;DHT22;9530;48.930;9.526;2022-07-24T00:40:39;18.60;99.90
18805;DHT22;9530;48.930;9.526;2022-07-24T00:43:06;18.60;99.90
18805;DHT22;9530;48.930;9.526;2022-07-24T00:45:32;18.50;99.90
18805;DHT22;9530;48.930;9.526;2022-07-24T00:48:00;18.50;99.90
18805;DHT22;9530;48.930;9.526;2022-07-24T00:50:27;18.50;99.90
18805;DHT22;9530;48.930;9.526;2022-07-24T00:52:55;18.70;99.90
18805;DHT22;9530;48.930;9.526;2022-07-24T00:55:22;18.60;99.90
18805;DHT22;9530;48.930;9.526;2022-07-24T00:57:49;18.50;99.90
18805;DHT22;9530;48.930;9.526;2022-07-24T01:00:17;18.50;99.90
18805;DHT22;9530;48.930;9.526;2022-07-24T01:02:44;18.40;99.90
18805;DHT22;9530;48.930;9.526;2022-07-24T01:05:13;18.30;99.90
18805;DHT22;9530;48.930;9.526;2022-07-24T01:07:40;18.30;99.90
18805;DHT22;9530;48.930;9.526;2022-07-24T01:10:07;18.30;99.90
18805;DHT22;9530;48.930;9.526;2022-07-24T01:12:36;18.30;99.90
18805;DHT22;9530;48.930;9.526;2022-07-24T01:15:04;18.30;99.90
18805;DHT22;9530;48.930;9.526;2022-07-24T01:17:31;18.20;99.90
18805;DHT22;9530;48.930;9.526;2022-07-24T01:19:58;18.20;99.90
18805;DHT22;9530;48.930;9.526;2022-07-24T01:22:27;18.20;99.90
18805;DHT22;9530;48.930;9.526;2022-07-24T01:24:54;18.20;99.90
18805;DHT22;9530;48.930;9.526;2022-07-24T01:27:21;18.20;99.90
18805;DHT22;9530;48.930;9.526;2022-07-24T01:29:48;18.10;99.90
18805;DHT22;9530;48.930;9.526;2022-07-24T01:32:15;18.20;99.90
18805;DHT22;9530;48.930;9.526;2022-07-24T01:34:42;18.20;99.90
18805;DHT22;9530;48.930;9.526;2022-07-24T01:37:09;18.20;99.90
18805;DHT22;9530;48.930;9.526;2022-07-24T01:39:37;18.20;99.90
18805;DHT22;9530;48.930;9.526;2022-07-24T01:42:04;18.10;99.90
18805;DHT22;9530;48.930;9.526;2022-07-24T01:44:30;18.10;99.90
18805;DHT22;9530;48.930;9.526;2022-07-24T01:46:57;18.10;99.90
18805;DHT22;9530;48.930;9.526;2022-07-24T01:49:24;18.00;99.90
18805;DHT22;9530;48.930;9.526;2022-07-24T01:51:50;18.00;99.90
18805;DHT22;9530;48.930;9.526;2022-07-24T01:54:17;17.90;99.90
18805;DHT22;9530;48.930;9.526;2022-07-24T01:56:45;18.00;99.90
18805;DHT22;9530;48.930;9.526;2022-07-24T01:59:12;18.00;99.90
18805;DHT22;9530;48.930;9.526;2022-07-24T02:01:38;18.00;99.90
18805;DHT22;9530;48.930;9.526;2022-07-24T02:04:05;18.00;99.90
18805;DHT22;9530;48.930;9.526;2022-07-24T02:06:32;17.90;99.90
18805;DHT22;9530;48.930;9.526;2022-07-24T02:08:58;17.80;99.90
18805;DHT22;9530;48.930;9.526;2022-07-24T02:11:25;17.70;99.90
18805;DHT22;9530;48.930;9.526;2022-07-24T02:13:53;17.80;99.90
18805;DHT22;9530;48.930;9.526;2022-07-24T02:16:22;17.80;99.90
18805;DHT22;9530;48.930;9.526;2022-07-24T02:18:49;17.70;99.90
18805;DHT22;9530;48.930;9.526;2022-07-24T02:21:15;17.70;99.90
18805;DHT22;9530;48.930;9.526;2022-07-24T02:23:42;17.70;99.90
18805;DHT22;9530;48.930;9.526;2022-07-24T02:26:09;17.60;99.90
18805;DHT22;9530;48.930;9.526;2022-07-24T02:28:36;17.70;99.90
18805;DHT22;9530;48.930;9.526;2022-07-24T02:31:04;17.70;99.90
18805;DHT22;9530;48.930;9.526;2022-07-24T02:33:30;17.80;99.90
18805;DHT22;9530;48.930;9.526;2022-07-24T02:35:57;17.70;99.90
18805;DHT22;9530;48.930;9.526;2022-07-24T02:38:24;17.70;99.90
18805;DHT22;9530;48.930;9.526;2022-07-24T02:40:50;17.60;99.90
18805;DHT22;9530;48.930;9.526;2022-07-24T02:43:17;17.50;99.90
18805;DHT22;9530;48.930;9.526;2022-07-24T02:45:44;17.20;99.90
18805;DHT22;9530;48.930;9.526;2022-07-24T02:48:12;17.50;99.90
18805;DHT22;9530;48.930;9.526;2022-07-24T02:50:38;17.50;99.90
18805;DHT22;9530;48.930;9.526;2022-07-24T02:53:06;17.50;99.90
18805;DHT22;9530;48.930;9.526;2022-07-24T02:55:33;17.40;99.90
18805;DHT22;9530;48.930;9.526;2022-07-24T02:57:59;17.50;99.90
18805;DHT22;9530;48.930;9.526;2022-07-24T03:00:26;17.50;99.90
18805;DHT22;9530;48.930;9.526;2022-07-24T03:02:53;17.50;99.90
18805;DHT22;9530;48.930;9.526;2022-07-24T03:05:21;17.50;99.90
18805;DHT22;9530;48.930;9.526;2022-07-24T03:07:48;17.40;99.90
18805;DHT22;9530;48.930;9.526;2022-07-24T03:10:15;17.40;99.90
18805;DHT22;9530;48.930;9.526;2022-07-24T03:12:42;17.30;99.90
18805;DHT22;9530;48.930;9.526;2022-07-24T03:15:10;17.30;99.90
18805;DHT22;9530;48.930;9.526;2022-07-24T03:17:37;17.30;99.90
18805;DHT22;9530;48.930;9.526;2022-07-24T03:20:05;17.30;99.90
18805;DHT22;9530;48.930;9.526;2022-07-24T03:22:33;17.20;99.90
18805;DHT22;9530;48.930;9.526;2022-07-24T03:25:00;17.20;99.90
18805;DHT22;9530;48.930;9.526;2022-07-24T03:27:27;17.10;99.90
18805;DHT22;9530;48.930;9.526;2022-07-24T03:29:53;17.10;99.90
18805;DHT22;9530;48.930;9.526;2022-07-24T03:32:20;17.10;99.90
18805;DHT22;9530;48.930;9.526;2022-07-24T03:34:47;17.10;99.90
18805;DHT22;9530;48.930;9.526;2022-07-24T03:37:14;17.10;99.90
18805;DHT22;9530;48.930;9.526;2022-07-24T03:39:42;17.10;99.90
18805;DHT22;9530;48.930;9.526;2022-07-24T03:42:08;17.10;99.90
18805;DHT22;9530;48.930;9.526;2022-07-24T03:44:35;17.10;99.90
18805;DHT22;9530;48.930;9.526;2022-07-24T03:47:02;17.00;99.90
18805;DHT22;9530;48.930;9.526;2022-07-24T03:49:28;17.10;99.90
18805;DHT22;9530;48.930;9.526;2022-07-24T03:51:55;17.10;99.90
18805;DHT22;9530;48.930;9.526;2022-07-24T03:54:22;17.00;99.90
18805;DHT22;9530;48.930;9.526;2022-07-24T03:56:50;17.00;99.90
18805;DHT22;9530;48.930;9.526;2022-07-24T03:59:16;17.00;99.90
18805;DHT22;9530;48.930;9.526;2022-07-24T04:01:43;17.10;99.90
18805;DHT22;9530;48.930;9.526;2022-07-24T04:04:10;17.10;99.90
18805;DHT22;9530;48.930;9.526;2022-07-24T04:06:37;17.10;99.90
18805;DHT22;9530;48.930;9.526;2022-07-24T04:09:04;17.10;99.90
18805;DHT22;9530;48.930;9.526;2022-07-24T04:11:31;17.10;99.90
18805;DHT22;9530;48.930;9.526;2022-07-24T04:13:59;17.10;99.90
18805;DHT22;9530;48.930;9.526;2022-07-24T04:16:26;17.00;99.90
18805;DHT22;9530;48.930;9.526;2022-07-24T04:18:52;16.90;99.90
18805;DHT22;9530;48.930;9.526;2022-07-24T04:21:19;16.90;99.90
18805;DHT22;9530;48.930;9.526;2022-07-24T04:23:46;17.00;99.90
18805;DHT22;9530;48.930;9.526;2022-07-24T04:26:12;17.10;99.90
18805;DHT22;9530;48.930;9.526;2022-07-24T04:28:39;17.10;99.90
18805;DHT22;9530;48.930;9.526;2022-07-24T04:31:08;17.20;99.90
18805;DHT22;9530;48.930;9.526;2022-07-24T04:33:35;17.20;99.90
18805;DHT22;9530;48.930;9.526;2022-07-24T04:36:03;17.20;99.90
18805;DHT22;9530;48.930;9.526;2022-07-24T04:38:31;17.20;99.90
18805;DHT22;9530;48.930;9.526;2022-07-24T04:40:58;17.20;99.90
18805;DHT22;9530;48.930;9.526;2022-07-24T04:43:25;17.20;99.90
18805;DHT22;9530;48.930;9.526;2022-07-24T04:45:51;17.20;99.90
18805;DHT22;9530;48.930;9.526;2022-07-24T04:48:19;17.20;99.90
18805;DHT22;9530;48.930;9.526;2022-07-24T04:50:46;17.20;99.90
18805;DHT22;9530;48.930;9.526;2022-07-24T04:53:13;17.30;99.90
18805;DHT22;9530;48.930;9.526;2022-07-24T04:55:39;17.40;99.90
18805;DHT22;9530;48.930;9.526;2022-07-24T04:58:06;17.40;99.90
18805;DHT22;9530;48.930;9.526;2022-07-24T05:00:33;17.50;99.90
18805;DHT22;9530;48.930;9.526;2022-07-24T05:02:59;17.60;99.90
18805;DHT22;9530;48.930;9.526;2022-07-24T05:05:28;17.60;99.90
18805;DHT22;9530;48.930;9.526;2022-07-24T05:07:54;17.70;99.90
18805;DHT22;9530;48.930;9.526;2022-07-24T05:10:21;17.70;99.90
18805;DHT22;9530;48.930;9.526;2022-07-24T05:12:48;17.80;99.90
18805;DHT22;9530;48.930;9.526;2022-07-24T05:15:15;17.80;99.90
18805;DHT22;9530;48.930;9.526;2022-07-24T05:17:41;18.00;99.90
18805;DHT22;9530;48.930;9.526;2022-07-24T05:20:09;18.00;99.90
18805;DHT22;9530;48.930;9.526;2022-07-24T05:22:37;18.10;99.90
18805;DHT22;9530;48.930;9.526;2022-07-24T05:25:05;18.20;99.90
18805;DHT22;9530;48.930;9.526;2022-07-24T05:27:32;18.30;99.90
18805;DHT22;9530;48.930;9.526;2022-07-24T05:29:58;18.40;99.90
18805;DHT22;9530;48.930;9.526;2022-07-24T05:32:25;18.50;99.90
18805;DHT22;9530;48.930;9.526;2022-07-24T05:34:52;18.60;99.90
18805;DHT22;9530;48.930;9.526;2022-07-24T05:37:18;18.80;99.90
18805;DHT22;9530;48.930;9.526;2022-07-24T05:39:46;18.90;99.90
18805;DHT22;9530;48.930;9.526;2022-07-24T05:42:13;19.00;99.90
18805;DHT22;9530;48.930;9.526;2022-07-24T05:44:40;19.10;99.90
18805;DHT22;9530;48.930;9.526;2022-07-24T05:47:06;19.20;99.90
18805;DHT22;9530;48.930;9.526;2022-07-24T05:49:33;19.40;99.90
18805;DHT22;9530;48.930;9.526;2022-07-24T05:52:00;19.50;99.90
18805;DHT22;9530;48.930;9.526;2022-07-24T05:54:27;19.60;99.90
18805;DHT22;9530;48.930;9.526;2022-07-24T05:56:56;19.70;99.90
18805;DHT22;9530;48.930;9.526;2022-07-24T05:59:22;19.80;99.90
18805;DHT22;9530;48.930;9.526;2022-07-24T06:01:49;19.80;99.90
18805;DHT22;9530;48.930;9.526;2022-07-24T06:04:16;19.90;99.90
18805;DHT22;9530;48.930;9.526;2022-07-24T06:06:43;20.00;99.90
18805;DHT22;9530;48.930;9.526;2022-07-24T06:09:09;20.20;99.90
18805;DHT22;9530;48.930;9.526;2022-07-24T06:11:36;20.40;99.90
18805;DHT22;9530;48.930;9.526;2022-07-24T06:14:04;20.50;99.90
18805;DHT22;9530;48.930;9.526;2022-07-24T06:16:31;20.60;99.90
18805;DHT22;9530;48.930;9.526;2022-07-24T06:18:57;20.80;99.90
18805;DHT22;9530;48.930;9.526;2022-07-24T06:21:24;20.90;99.90
18805;DHT22;9530;48.930;9.526;2022-07-24T06:23:52;21.10;99.90
18805;DHT22;9530;48.930;9.526;2022-07-24T06:26:18;21.10;99.90
18805;DHT22;9530;48.930;9.526;2022-07-24T06:28:45;21.20;99.90
18805;DHT22;9530;48.930;9.526;2022-07-24T06:31:13;21.40;99.90
18805;DHT22;9530;48.930;9.526;2022-07-24T06:33:40;21.60;99.90
18805;DHT22;9530;48.930;9.526;2022-07-24T06:36:07;21.70;99.90
18805;DHT22;9530;48.930;9.526;2022-07-24T06:38:36;21.80;99.90
18805;DHT22;9530;48.930;9.526;2022-07-24T06:41:02;22.10;99.90
18805;DHT22;9530;48.930;9.526;2022-07-24T06:43:29;22.30;99.90
18805;DHT22;9530;48.930;9.526;2022-07-24T06:45:56;22.40;99.90
18805;DHT22;9530;48.930;9.526;2022-07-24T06:48:23;22.60;99.90
18805;DHT22;9530;48.930;9.526;2022-07-24T06:50:50;22.80;99.90
18805;DHT22;9530;48.930;9.526;2022-07-24T06:53:17;22.90;99.90
18805;DHT22;9530;48.930;9.526;2022-07-24T06:55:43;23.00;99.90
18805;DHT22;9530;48.930;9.526;2022-07-24T06:58:10;23.10;99.90
18805;DHT22;9530;48.930;9.526;2022-07-24T07:00:37;23.30;99.90
18805;DHT22;9530;48.930;9.526;2022-07-24T07:03:04;23.40;99.90
18805;DHT22;9530;48.930;9.526;2022-07-24T07:05:32;23.50;99.90
18805;DHT22;9530;48.930;9.526;2022-07-24T07:07:58;23.70;99.90
18805;DHT22;9530;48.930;9.526;2022-07-24T07:10:25;23.80;99.90
18805;DHT22;9530;48.930;9.526;2022-07-24T07:12:52;24.10;99.90
18805;DHT22;9530;48.930;9.526;2022-07-24T07:15:18;24.30;99.90
18805;DHT22;9530;48.930;9.526;2022-07-24T07:17:45;24.40;99.90
18805;DHT22;9530;48.930;9.526;2022-07-24T07:20:13;24.40;99.90
18805;DHT22;9530;48.930;9.526;2022-07-24T07:22:41;24.50;99.90
18805;DHT22;9530;48.930;9.526;2022-07-24T07:25:10;24.70;99.90
18805;DHT22;9530;48.930;9.526;2022-07-24T07:27:37;24.90;99.90
18805;DHT22;9530;48.930;9.526;2022-07-24T07:30:05;25.10;99.90
18805;DHT22;9530;48.930;9.526;2022-07-24T07:32:33;25.20;99.90
18805;DHT22;9530;48.930;9.526;2022-07-24T07:35:00;25.30;99.90
18805;DHT22;9530;48.930;9.526;2022-07-24T07:37:26;25.40;99.90
18805;DHT22;9530;48.930;9.526;2022-07-24T07:39:54;25.50;99.90
18805;DHT22;9530;48.930;9.526;2022-07-24T07:42:23;25.60;99.90
18805;DHT22;9530;48.930;9.526;2022-07-24T07:44:49;25.80;99.90
18805;DHT22;9530;48.930;9.526;2022-07-24T07:47:16;25.90;99.90
18805;DHT22;9530;48.930;9.526;2022-07-24T07:49:43;26.10;99.90
18805;DHT22;9530;48.930;9.526;2022-07-24T07:52:09;26.00;99.90
18805;DHT22;9530;48.930;9.526;2022-07-24T07:54:36;26.00;99.90
18805;DHT22;9530;48.930;9.526;2022-07-24T07:57:04;25.90;99.90
18805;DHT22;9530;48.930;9.526;2022-07-24T07:59:31;26.00;99.90
18805;DHT22;9530;48.930;9.526;2022-07-24T08:01:57;26.10;99.90
18805;DHT22;9530;48.930;9.526;2022-07-24T08:04:24;26.20;99.90
18805;DHT22;9530;48.930;9.526;2022-07-24T08:06:51;26.50;99.90
18805;DHT22;9530;48.930;9.526;2022-07-24T08:09:17;26.60;99.90
18805;DHT22;9530;48.930;9.526;2022-07-24T08:11:46;26.90;99.90
18805;DHT22;9530;48.930;9.526;2022-07-24T08:14:14;26.90;99.90
18805;DHT22;9530;48.930;9.526;2022-07-24T08:16:40;26.80;99.90
18805;DHT22;9530;48.930;9.526;2022-07-24T08:19:07;26.80;99.90
18805;DHT22;9530;48.930;9.526;2022-07-24T08:21:34;26.80;99.90
18805;DHT22;9530;48.930;9.526;2022-07-24T08:24:01;27.20;99.90
18805;DHT22;9530;48.930;9.526;2022-07-24T08:26:28;27.50;99.90
18805;DHT22;9530;48.930;9.526;2022-07-24T08:28:56;27.60;99.90
18805;DHT22;9530;48.930;9.526;2022-07-24T08:31:24;27.50;99.90
18805;DHT22;9530;48.930;9.526;2022-07-24T08:33:51;27.40;99.90
18805;DHT22;9530;48.930;9.526;2022-07-24T08:36:18;27.50;99.90
18805;DHT22;9530;48.930;9.526;2022-07-24T08:38:44;27.50;99.90
18805;DHT22;9530;48.930;9.526;2022-07-24T08:41:12;27.30;99.90
18805;DHT22;9530;48.930;9.526;2022-07-24T08:43:39;27.40;99.90
18805;DHT22;9530;48.930;9.526;2022-07-24T08:46:09;27.40;99.90
18805;DHT22;9530;48.930;9.526;2022-07-24T08:48:42;27.60;99.90
18805;DHT22;9530;48.930;9.526;2022-07-24T08:51:12;27.90;99.90
18805;DHT22;9530;48.930;9.526;2022-07-24T08:53:39;28.10;99.90
18805;DHT22;9530;48.930;9.526;2022-07-24T08:56:06;28.40;99.90
18805;DHT22;9530;48.930;9.526;2022-07-24T08:58:36;28.40;99.90
18805;DHT22;9530;48.930;9.526;2022-07-24T09:01:04;27.90;99.90
18805;DHT22;9530;48.930;9.526;2022-07-24T09:03:39;27.40;99.90
18805;DHT22;9530;48.930;9.526;2022-07-24T09:06:08;27.80;99.90
18805;DHT22;9530;48.930;9.526;2022-07-24T09:08:35;28.00;99.90
18805;DHT22;9530;48.930;9.526;2022-07-24T09:11:04;28.10;99.90
18805;DHT22;9530;48.930;9.526;2022-07-24T09:13:32;28.20;99.90
18805;DHT22;9530;48.930;9.526;2022-07-24T09:16:17;28.30;99.90
18805;DHT22;9530;48.930;9.526;2022-07-24T09:18:49;28.20;99.90
18805;DHT22;9530;48.930;9.526;2022-07-24T09:21:17;28.30;99.90
18805;DHT22;9530;48.930;9.526;2022-07-24T09:23:45;28.50;99.90
18805;DHT22;9530;48.930;9.526;2022-07-24T09:26:14;28.60;99.90
18805;DHT22;9530;48.930;9.526;2022-07-24T09:28:49;28.90;99.90
18805;DHT22;9530;48.930;9.526;2022-07-24T09:31:15;28.60;99.90
18805;DHT22;9530;48.930;9.526;2022-07-24T09:33:42;28.90;99.90
18805;DHT22;9530;48.930;9.526;2022-07-24T09:36:15;28.60;99.90
18805;DHT22;9530;48.930;9.526;2022-07-24T09:38:47;28.30;99.90
18805;DHT22;9530;48.930;9.526;2022-07-24T09:41:20;28.60;99.90
18805;DHT22;9530;48.930;9.526;2022-07-24T09:43:56;28.90;99.90
18805;DHT22;9530;48.930;9.526;2022-07-24T09:46:24;29.00;99.90
18805;DHT22;9530;48.930;9.526;2022-07-24T09:48:53;29.30;99.90
18805;DHT22;9530;48.930;9.526;2022-07-24T09:51:24;29.50;99.90
18805;DHT22;9530;48.930;9.526;2022-07-24T09:53:54;29.20;99.90
18805;DHT22;9530;48.930;9.526;2022-07-24T09:56:21;29.10;99.90
18805;DHT22;9530;48.930;9.526;2022-07-24T09:58:51;29.20;99.90
18805;DHT22;9530;48.930;9.526;2022-07-24T10:01:21;29.30;99.90
18805;DHT22;9530;48.930;9.526;2022-07-24T10:03:50;29.40;99.90
18805;DHT22;9530;48.930;9.526;2022-07-24T10:06:19;29.20;99.90
18805;DHT22;9530;48.930;9.526;2022-07-24T10:08:49;28.90;99.90
18805;DHT22;9530;48.930;9.526;2022-07-24T10:11:17;28.60;99.90
18805;DHT22;9530;48.930;9.526;2022-07-24T10:13:44;28.50;99.90
18805;DHT22;9530;48.930;9.526;2022-07-24T10:16:32;28.40;99.90
18805;DHT22;9530;48.930;9.526;2022-07-24T10:19:00;28.70;99.90
18805;DHT22;9530;48.930;9.526;2022-07-24T10:21:28;29.20;99.90
18805;DHT22;9530;48.930;9.526;2022-07-24T10:24:26;29.40;99.90
18805;DHT22;9530;48.930;9.526;2022-07-24T10:27:03;29.80;99.90
18805;DHT22;9530;48.930;9.526;2022-07-24T10:29:33;30.20;99.90
18805;DHT22;9530;48.930;9.526;2022-07-24T10:32:00;30.20;99.90
18805;DHT22;9530;48.930;9.526;2022-07-24T10:34:32;30.50;99.90
18805;DHT22;9530;48.930;9.526;2022-07-24T10:37:09;30.40;99.90
18805;DHT22;9530;48.930;9.526;2022-07-24T10:39:47;30.40;99.90
18805;DHT22;9530;48.930;9.526;2022-07-24T10:42:16;30.10;99.90
18805;DHT22;9530;48.930;9.526;2022-07-24T10:44:43;30.10;99.90
18805;DHT22;9530;48.930;9.526;2022-07-24T10:47:11;30.20;99.90
18805;DHT22;9530;48.930;9.526;2022-07-24T10:49:41;30.30;99.90
18805;DHT22;9530;48.930;9.526;2022-07-24T10:52:09;30.30;99.90
18805;DHT22;9530;48.930;9.526;2022-07-24T10:54:37;30.40;99.90
18805;DHT22;9530;48.930;9.526;2022-07-24T10:57:05;30.30;99.90
18805;DHT22;9530;48.930;9.526;2022-07-24T10:59:34;29.60;99.90
18805;DHT22;9530;48.930;9.526;2022-07-24T11:02:23;29.90;99.90
18805;DHT22;9530;48.930;9.526;2022-07-24T11:05:22;30.30;99.90
18805;DHT22;9530;48.930;9.526;2022-07-24T11:11:09;30.60;99.90
18805;DHT22;9530;48.930;9.526;2022-07-24T11:13:43;30.80;99.90
18805;DHT22;9530;48.930;9.526;2022-07-24T11:16:22;30.80;99.90
18805;DHT22;9530;48.930;9.526;2022-07-24T11:22:05;30.20;99.90
18805;DHT22;9530;48.930;9.526;2022-07-24T11:24:32;30.50;99.90
18805;DHT22;9530;48.930;9.526;2022-07-24T11:27:04;30.70;99.90
18805;DHT22;9530;48.930;9.526;2022-07-24T11:29:34;30.60;99.90
18805;DHT22;9530;48.930;9.526;2022-07-24T11:32:03;30.60;99.90
18805;DHT22;9530;48.930;9.526;2022-07-24T11:34:31;30.80;99.90
18805;DHT22;9530;48.930;9.526;2022-07-24T11:36:59;31.10;99.90
18805;DHT22;9530;48.930;9.526;2022-07-24T11:39:28;31.30;99.90
18805;DHT22;9530;48.930;9.526;2022-07-24T11:41:57;31.40;99.90
18805;DHT22;9530;48.930;9.526;2022-07-24T11:44:25;31.30;98.90
18805;DHT22;9530;48.930;9.526;2022-07-24T11:46:53;31.40;99.90
18805;DHT22;9530;48.930;9.526;2022-07-24T11:49:23;31.30;99.50
18805;DHT22;9530;48.930;9.526;2022-07-24T11:51:50;31.40;98.60
18805;DHT22;9530;48.930;9.526;2022-07-24T11:54:21;31.40;98.40
18805;DHT22;9530;48.930;9.526;2022-07-24T11:56:48;31.40;99.70
18805;DHT22;9530;48.930;9.526;2022-07-24T11:59:23;31.30;98.70
18805;DHT22;9530;48.930;9.526;2022-07-24T12:01:50;31.00;99.20
18805;DHT22;9530;48.930;9.526;2022-07-24T12:04:21;31.20;99.50
18805;DHT22;9530;48.930;9.526;2022-07-24T12:06:48;30.70;98.50
18805;DHT22;9530;48.930;9.526;2022-07-24T12:09:14;30.80;99.90
18805;DHT22;9530;48.930;9.526;2022-07-24T12:11:41;31.20;99.10
18805;DHT22;9530;48.930;9.526;2022-07-24T12:14:13;31.40;98.00
18805;DHT22;9530;48.930;9.526;2022-07-24T12:16:40;31.50;98.10
18805;DHT22;9530;48.930;9.526;2022-07-24T12:19:14;31.50;99.00
18805;DHT22;9530;48.930;9.526;2022-07-24T12:21:42;31.40;98.20
18805;DHT22;9530;48.930;9.526;2022-07-24T12:24:09;31.30;97.20
18805;DHT22;9530;48.930;9.526;2022-07-24T12:26:48;31.30;97.50
18805;DHT22;9530;48.930;9.526;2022-07-24T12:29:15;31.50;97.30
18805;DHT22;9530;48.930;9.526;2022-07-24T12:31:42;31.60;97.40
18805;DHT22;9530;48.930;9.526;2022-07-24T12:34:09;32.00;97.60
18805;DHT22;9530;48.930;9.526;2022-07-24T12:36:36;31.80;96.40
18805;DHT22;9530;48.930;9.526;2022-07-24T12:39:04;31.60;97.10
18805;DHT22;9530;48.930;9.526;2022-07-24T12:41:39;30.70;96.50
18805;DHT22;9530;48.930;9.526;2022-07-24T12:44:06;30.70;96.90
18805;DHT22;9530;48.930;9.526;2022-07-24T12:46:34;30.10;97.20
18805;DHT22;9530;48.930;9.526;2022-07-24T12:49:02;30.20;98.60
18805;DHT22;9530;48.930;9.526;2022-07-24T12:51:47;30.30;99.00
18805;DHT22;9530;48.930;9.526;2022-07-24T12:54:19;30.00;98.30
18805;DHT22;9530;48.930;9.526;2022-07-24T12:56:48;30.30;98.80
18805;DHT22;9530;48.930;9.526;2022-07-24T12:59:23;30.70;98.20
18805;DHT22;9530;48.930;9.526;2022-07-24T13:01:52;31.30;97.90
18805;DHT22;9530;48.930;9.526;2022-07-24T13:04:21;31.50;96.80
18805;DHT22;9530;48.930;9.526;2022-07-24T13:06:49;31.70;96.30
18805;DHT22;9530;48.930;9.526;2022-07-24T13:09:19;31.70;95.90
18805;DHT22;9530;48.930;9.526;2022-07-24T13:11:47;31.90;96.00
18805;DHT22;9530;48.930;9.526;2022-07-24T13:14:16;32.10;95.20
18805;DHT22;9530;48.930;9.526;2022-07-24T13:16:44;32.10;95.60
18805;DHT22;9530;48.930;9.526;2022-07-24T13:19:11;32.30;95.60
18805;DHT22;9530;48.930;9.526;2022-07-24T13:21:38;32.20;95.70
18805;DHT22;9530;48.930;9.526;2022-07-24T13:24:07;32.30;96.10
18805;DHT22;9530;48.930;9.526;2022-07-24T13:26:37;32.60;94.70
18805;DHT22;9530;48.930;9.526;2022-07-24T13:29:04;32.50;95.00
18805;DHT22;9530;48.930;9.526;2022-07-24T13:31:31;32.40;94.40
18805;DHT22;9530;48.930;9.526;2022-07-24T13:33:58;32.40;94.60
18805;DHT22;9530;48.930;9.526;2022-07-24T13:36:25;32.60;94.40
18805;DHT22;9530;48.930;9.526;2022-07-24T13:38:52;32.10;93.70
18805;DHT22;9530;48.930;9.526;2022-07-24T13:41:19;32.10;93.60
18805;DHT22;9530;48.930;9.526;2022-07-24T13:43:48;32.20;93.90
18805;DHT22;9530;48.930;9.526;2022-07-24T13:46:15;32.20;93.70
18805;DHT22;9530;48.930;9.526;2022-07-24T13:48:42;31.90;94.10
18805;DHT22;9530;48.930;9.526;2022-07-24T13:51:10;32.40;94.20
18805;DHT22;9530;48.930;9.526;2022-07-24T13:53:36;32.40;93.50
18805;DHT22;9530;48.930;9.526;2022-07-24T13:56:04;32.40;93.20
18805;DHT22;9530;48.930;9.526;2022-07-24T13:58:31;32.30;93.30
18805;DHT22;9530;48.930;9.526;2022-07-24T14:01:00;32.60;94.40
18805;DHT22;9530;48.930;9.526;2022-07-24T14:03:27;32.80;93.80
18805;DHT22;9530;48.930;9.526;2022-07-24T14:05:54;33.00;93.00
18805;DHT22;9530;48.930;9.526;2022-07-24T14:08:20;33.20;93.40
18805;DHT22;9530;48.930;9.526;2022-07-24T14:10:47;33.30;92.70
18805;DHT22;9530;48.930;9.526;2022-07-24T14:13:14;33.50;92.80
18805;DHT22;9530;48.930;9.526;2022-07-24T14:15:41;33.50;92.80
18805;DHT22;9530;48.930;9.526;2022-07-24T14:18:09;33.50;91.00
18805;DHT22;9530;48.930;9.526;2022-07-24T14:20:35;33.30;91.80
18805;DHT22;9530;48.930;9.526;2022-07-24T14:23:02;33.60;92.60
18805;DHT22;9530;48.930;9.526;2022-07-24T14:25:29;33.60;91.20
18805;DHT22;9530;48.930;9.526;2022-07-24T14:27:55;33.80;92.10
18805;DHT22;9530;48.930;9.526;2022-07-24T14:30:23;33.50;91.50
18805;DHT22;9530;48.930;9.526;2022-07-24T14:32:50;33.70;90.50
18805;DHT22;9530;48.930;9.526;2022-07-24T14:35:18;33.90;89.90
18805;DHT22;9530;48.930;9.526;2022-07-24T14:37:44;33.80;90.80
18805;DHT22;9530;48.930;9.526;2022-07-24T14:40:12;33.80;91.40
18805;DHT22;9530;48.930;9.526;2022-07-24T14:42:38;33.90;90.40
18805;DHT22;9530;48.930;9.526;2022-07-24T14:45:06;33.80;90.80
18805;DHT22;9530;48.930;9.526;2022-07-24T14:47:33;33.70;90.20
18805;DHT22;9530;48.930;9.526;2022-07-24T14:50:00;33.80;91.20
18805;DHT22;9530;48.930;9.526;2022-07-24T14:52:28;33.90;91.70
18805;DHT22;9530;48.930;9.526;2022-07-24T14:54:54;33.90;91.40
18805;DHT22;9530;48.930;9.526;2022-07-24T14:57:21;33.90;91.20
18805;DHT22;9530;48.930;9.526;2022-07-24T14:59:47;34.10;90.10
18805;DHT22;9530;48.930;9.526;2022-07-24T15:02:14;34.20;88.90
18805;DHT22;9530;48.930;9.526;2022-07-24T15:04:41;34.20;88.50
18805;DHT22;9530;48.930;9.526;2022-07-24T15:07:08;34.10;87.40
18805;DHT22;9530;48.930;9.526;2022-07-24T15:09:36;33.70;89.60
18805;DHT22;9530;48.930;9.526;2022-07-24T15:12:04;33.80;90.20
18805;DHT22;9530;48.930;9.526;2022-07-24T15:14:30;33.80;89.50
18805;DHT22;9530;48.930;9.526;2022-07-24T15:16:57;34.10;90.20
18805;DHT22;9530;48.930;9.526;2022-07-24T15:19:24;34.30;90.40
18805;DHT22;9530;48.930;9.526;2022-07-24T15:21:51;34.60;89.30
18805;DHT22;9530;48.930;9.526;2022-07-24T15:24:17;35.50;87.00
18805;DHT22;9530;48.930;9.526;2022-07-24T15:26:46;36.80;81.90
18805;DHT22;9530;48.930;9.526;2022-07-24T15:29:13;38.10;79.20
18805;DHT22;9530;48.930;9.526;2022-07-24T15:31:40;39.30;72.80
18805;DHT22;9530;48.930;9.526;2022-07-24T15:34:07;39.90;69.70
18805;DHT22;9530;48.930;9.526;2022-07-24T15:36:34;40.60;69.20
18805;DHT22;9530;48.930;9.526;2022-07-24T15:39:00;41.40;65.30
18805;DHT22;9530;48.930;9.526;2022-07-24T15:41:27;42.90;63.50
18805;DHT22;9530;48.930;9.526;2022-07-24T15:43:55;42.60;59.40
18805;DHT22;9530;48.930;9.526;2022-07-24T15:46:22;42.50;57.50
18805;DHT22;9530;48.930;9.526;2022-07-24T15:48:48;41.70;57.70
18805;DHT22;9530;48.930;9.526;2022-07-24T15:51:15;42.20;57.80
18805;DHT22;9530;48.930;9.526;2022-07-24T15:53:42;42.20;56.40
18805;DHT22;9530;48.930;9.526;2022-07-24T15:56:09;41.90;55.20